Observation data for McLean on 02/14/2020      Previous  Date  Next       Current Mesonet Observations  Soil Data  Daily Summary Page  Observations in Plain Language
KMCS 140600Z 09009KT M06/M11 A303 RMK A01 T10581112  RH  066%=      5-min Rain = 0
KMCS 140605Z 08009KT M06/M11 A3031 RMK A01 T10591111  RH  066%=      5-min Rain = 0
KMCS 140610Z 09007KT M06/M11 A3031 RMK A01 T10601111  RH  067%=      5-min Rain = 0
KMCS 140615Z 09009KT M06/M11 A3031 RMK A01 T10611113  RH  066%=      5-min Rain = 0
KMCS 140620Z 10008KT M06/M11 A3031 RMK A01 T10611110  RH  068%=      5-min Rain = 0
KMCS 140625Z 09007KT M06/M11 A3031 RMK A01 T10611110  RH  068%=      5-min Rain = 0
KMCS 140630Z 10008KT M06/M11 A3031 RMK A01 T10621111  RH  068%=      5-min Rain = 0
KMCS 140635Z 10007KT M06/M11 A3032 RMK A01 T10631111  RH  069%=      5-min Rain = 0
KMCS 140640Z 10006KT M06/M11 A3031 RMK A01 T10641108  RH  070%=      5-min Rain = 0
KMCS 140645Z 09005KT M07/M11 A3032 RMK A01 T10651110  RH  070%=      5-min Rain = 0
KMCS 140650Z 08006KT M07/M11 A3032 RMK A01 T10651110  RH  070%=      5-min Rain = 0
KMCS 140655Z 09007KT M06/M11 A3032 RMK A01 T10641109  RH  070%=      5-min Rain = 0
KMCS 140700Z 09007KT M07/M11 A3032 RMK A01 T10651111  RH  069%=      5-min Rain = 0
KMCS 140705Z 09009KT M07/M12 A3032 RMK A01 T10661115  RH  067%=      5-min Rain = 0
KMCS 140710Z 09008KT M07/M12 A3032 RMK A01 T10661117  RH  067%=      5-min Rain = 0
KMCS 140715Z 09008KT M07/M12 A3032 RMK A01 T10661117  RH  067%=      5-min Rain = 0
KMCS 140720Z 09007KT M07/M12 A3031 RMK A01 T10671117  RH  067%=      5-min Rain = 0
KMCS 140725Z 09007KT M07/M12 A3031 RMK A01 T10671115  RH  068%=      5-min Rain = 0
KMCS 140730Z 09007KT M07/M12 A3032 RMK A01 T10691117  RH  068%=      5-min Rain = 0
KMCS 140735Z 10007KT M07/M12 A3032 RMK A01 T10701116  RH  069%=      5-min Rain = 0
KMCS 140740Z 11007KT M07/M12 A3032 RMK A01 T10701117  RH  069%=      5-min Rain = 0
KMCS 140745Z 10006KT M07/M12 A3032 RMK A01 T10711116  RH  070%=      5-min Rain = 0
KMCS 140750Z 10005KT M07/M12 A3032 RMK A01 T10721117  RH  070%=      5-min Rain = 0
KMCS 140755Z 10005KT M07/M12 A3032 RMK A01 T10731115  RH  071%=      5-min Rain = 0
KMCS 140800Z 10004KT M07/M11 A3032 RMK A01 T10731113  RH  073%=      5-min Rain = 0
KMCS 140805Z 09005KT M07/M11 A3032 RMK A01 T10741113  RH  073%=      5-min Rain = 0
KMCS 140810Z 09004KT M08/M11 A3032 RMK A01 T10751114  RH  073%=      5-min Rain = 0
KMCS 140815Z 08004KT M08/M11 A3032 RMK A01 T10751113  RH  074%=      5-min Rain = 0
KMCS 140820Z 08004KT M08/M11 A3032 RMK A01 T10751113  RH  074%=      5-min Rain = 0
KMCS 140825Z 08004KT M08/M11 A3032 RMK A01 T10761112  RH  075%=      5-min Rain = 0
KMCS 140830Z 08004KT M08/M11 A3032 RMK A01 T10761111  RH  075%=      5-min Rain = 0
KMCS 140835Z 08004KT M08/M11 A3032 RMK A01 T10761112  RH  075%=      5-min Rain = 0
KMCS 140840Z 08003KT M08/M11 A3032 RMK A01 T10771112  RH  076%=      5-min Rain = 0
KMCS 140845Z 07003KT M08/M11 A3032 RMK A01 T10781112  RH  076%=      5-min Rain = 0
KMCS 140850Z 08003KT M08/M11 A3032 RMK A01 T10781111  RH  077%=      5-min Rain = 0
KMCS 140855Z 08003KT M08/M11 A3032 RMK A01 T10781109  RH  078%=      5-min Rain = 0
KMCS 140900Z 07003KT M08/M11 A3032 RMK A01 T10791109  RH  078%=      5-min Rain = 0
KMCS 140905Z 07003KT M08/M11 A3032 RMK A01 T10801109  RH  079%=      5-min Rain = 0
KMCS 140910Z 07003KT M08/M11 A3032 RMK A01 T10801108  RH  080%=      5-min Rain = 0
KMCS 140915Z 07003KT M08/M11 A3032 RMK A01 T10811107  RH  081%=      5-min Rain = 0
KMCS 140920Z 08003KT M08/M11 A3032 RMK A01 T10821106  RH  082%=      5-min Rain = 0
KMCS 140925Z 08003KT M08/M10 A3032 RMK A01 T10821104  RH  084%=      5-min Rain = 0
KMCS 140930Z 07003KT M08/M10 A3032 RMK A01 T10821103  RH  085%=      5-min Rain = 0
KMCS 140935Z 07004KT M08/M10 A3032 RMK A01 T10831103  RH  085%=      5-min Rain = 0
KMCS 140940Z 08004KT M08/M10 A3032 RMK A01 T10831102  RH  086%=      5-min Rain = 0
KMCS 140945Z 08004KT M08/M10 A3032 RMK A01 T10841102  RH  086%=      5-min Rain = 0
KMCS 140950Z 08004KT M08/M10 A3032 RMK A01 T10841102  RH  087%=      5-min Rain = 0
KMCS 140955Z 09004KT M08/M10 A3032 RMK A01 T10841100  RH  088%=      5-min Rain = 0
KMCS 141000Z 09005KT M08/M10 A3031 RMK A01 T10831099  RH  088%=      5-min Rain = 0
KMCS 141005Z 09004KT M08/M10 A3031 RMK A01 T10841099  RH  089%=      5-min Rain = 0
KMCS 141010Z 09004KT M09/M10 A3031 RMK A01 T10851099  RH  089%=      5-min Rain = 0
KMCS 141015Z 10005KT M09/M10 A3031 RMK A01 T10851099  RH  089%=      5-min Rain = 0
KMCS 141020Z 10004KT M09/M10 A3031 RMK A01 T10851098  RH  089%=      5-min Rain = 0
KMCS 141025Z 10004KT M09/M10 A3031 RMK A01 T10851099  RH  089%=      5-min Rain = 0
KMCS 141030Z 10004KT M08/M10 A3031 RMK A01 T10841098  RH  089%=      5-min Rain = 0
KMCS 141035Z 11003KT M09/M10 A3031 RMK A01 T10851099  RH  089%=      5-min Rain = 0
KMCS 141040Z 10003KT M08/M10 A3031 RMK A01 T10841098  RH  089%=      5-min Rain = 0
KMCS 141045Z 10003KT M08/M10 A3031 RMK A01 T10841098  RH  090%=      5-min Rain = 0
KMCS 141050Z 09002KT M08/M10 A3031 RMK A01 T10841097  RH  090%=      5-min Rain = 0
KMCS 141055Z 10002KT M08/M10 A3031 RMK A01 T10841097  RH  090%=      5-min Rain = 0
KMCS 141100Z 12003KT M08/M10 A3031 RMK A01 T10841098  RH  090%=      5-min Rain = 0
KMCS 141105Z 12002KT M08/M10 A303 RMK A01 T10841098  RH  090%=      5-min Rain = 0
KMCS 141110Z 13003KT M08/M10 A3031 RMK A01 T10841098  RH  089%=      5-min Rain = 0
KMCS 141115Z 13003KT M08/M10 A3031 RMK A01 T10841098  RH  090%=      5-min Rain = 0
KMCS 141120Z 13003KT M08/M10 A303 RMK A01 T10841099  RH  089%=      5-min Rain = 0
KMCS 141125Z 14003KT M08/M10 A3031 RMK A01 T10841098  RH  090%=      5-min Rain = 0
KMCS 141130Z 14003KT M09/M10 A3031 RMK A01 T10851098  RH  090%=      5-min Rain = 0
KMCS 141135Z 15003KT M09/M10 A3031 RMK A01 T10861099  RH  090%=      5-min Rain = 0
KMCS 141140Z 15003KT M09/M10 A3031 RMK A01 T10861099  RH  090%=      5-min Rain = 0
KMCS 141145Z 14002KT M09/M10 A3031 RMK A01 T10861099  RH  090%=      5-min Rain = 0
KMCS 141150Z 14002KT M09/M10 A3031 RMK A01 T10871099  RH  090%=      5-min Rain = 0
KMCS 141155Z 15003KT M09/M10 A3031 RMK A01 T10881100  RH  091%=      5-min Rain = 0
KMCS 141200Z 16003KT M09/M10 A3031 RMK A01 T10881100  RH  091%=      5-min Rain = 0
KMCS 141205Z 17004KT M09/M10 A3031 RMK A01 T10881099  RH  091%=      5-min Rain = 0
KMCS 141210Z 17004KT M09/M10 A3031 RMK A01 T10871099  RH  091%=      5-min Rain = 0
KMCS 141215Z 17003KT M09/M10 A3031 RMK A01 T10871098  RH  091%=      5-min Rain = 0
KMCS 141220Z 17003KT M09/M10 A3031 RMK A01 T10861098  RH  091%=      5-min Rain = 0
KMCS 141225Z 16004KT M09/M10 A3031 RMK A01 T10861098  RH  091%=      5-min Rain = 0
KMCS 141230Z 16004KT M09/M10 A3031 RMK A01 T10861098  RH  091%=      5-min Rain = 0
KMCS 141235Z 16003KT M09/M10 A3031 RMK A01 T10851098  RH  090%=      5-min Rain = 0
KMCS 141240Z 16004KT M08/M10 A3031 RMK A01 T10831098  RH  089%=      5-min Rain = 0
KMCS 141245Z 16004KT M08/M10 A3031 RMK A01 T10821102  RH  085%=      5-min Rain = 0
KMCS 141250Z 16005KT M08/M11 A3031 RMK A01 T10811105  RH  083%=      5-min Rain = 0
KMCS 141255Z 16005KT M08/M11 A3031 RMK A01 T10811107  RH  081%=      5-min Rain = 0
KMCS 141300Z 16005KT M08/M11 A3031 RMK A01 T10801108  RH  080%=      5-min Rain = 0
KMCS 141305Z 16005KT M08/M11 A3031 RMK A01 T10791107  RH  080%=      5-min Rain = 0
KMCS 141310Z 15005KT M08/M11 A3031 RMK A01 T10791107  RH  080%=      5-min Rain = 0
KMCS 141315Z 16006KT M08/M11 A3031 RMK A01 T10801106  RH  081%=      5-min Rain = 0
KMCS 141320Z 15005KT M08/M11 A3031 RMK A01 T10791107  RH  080%=      5-min Rain = 0
KMCS 141325Z 15006KT M08/M11 A3031 RMK A01 T10801109  RH  079%=      5-min Rain = 0
KMCS 141330Z 14005KT M08/M11 A3031 RMK A01 T10801109  RH  079%=      5-min Rain = 0
KMCS 141335Z 15005KT M08/M11 A3032 RMK A01 T10801109  RH  079%=      5-min Rain = 0
KMCS 141340Z 15005KT M08/M11 A3032 RMK A01 T10811111  RH  078%=      5-min Rain = 0
KMCS 141345Z 15005KT M08/M11 A3032 RMK A01 T10801110  RH  079%=      5-min Rain = 0
KMCS 141350Z 15006KT M08/M11 A3032 RMK A01 T10811110  RH  079%=      5-min Rain = 0
KMCS 141355Z 16007KT M08/M11 A3032 RMK A01 T10801109  RH  079%=      5-min Rain = 0
KMCS 141400Z 16007KT M08/M11 A3032 RMK A01 T10791108  RH  080%=      5-min Rain = 0
KMCS 141405Z 16007KT M08/M11 A3032 RMK A01 T10791107  RH  080%=      5-min Rain = 0
KMCS 141410Z 16007KT M08/M11 A3031 RMK A01 T10791106  RH  081%=      5-min Rain = 0
KMCS 141415Z 16007KT M08/M10 A3031 RMK A01 T10781104  RH  081%=      5-min Rain = 0
KMCS 141420Z 16007KT M08/M10 A3031 RMK A01 T10771104  RH  081%=      5-min Rain = 0
KMCS 141425Z 17008KT M08/M10 A3031 RMK A01 T10761103  RH  080%=      5-min Rain = 0
KMCS 141430Z 17009KT M08/M11 A3031 RMK A01 T10751106  RH  078%=      5-min Rain = 0
KMCS 141435Z 17008KT M07/M11 A3032 RMK A01 T10741105  RH  078%=      5-min Rain = 0
KMCS 141440Z 17009KT M07/M10 A3032 RMK A01 T10701104  RH  077%=      5-min Rain = 0
KMCS 141445Z 17011KT M07/M11 A3032 RMK A01 T10691107  RH  074%=      5-min Rain = 0
KMCS 141450Z 17010KT M07/M11 A3032 RMK A01 T10671108  RH  073%=      5-min Rain = 0
KMCS 141455Z 18011KT M07/M11 A3032 RMK A01 T10661108  RH  071%=      5-min Rain = 0
KMCS 141500Z 18011KT M06/M11 A3032 RMK A01 T10641107  RH  071%=      5-min Rain = 0
KMCS 141505Z 18011KT M07/M11 A3032 RMK A01 T10651107  RH  072%=      5-min Rain = 0
KMCS 141510Z 18013KT M07/M11 A3032 RMK A01 T10651108  RH  071%=      5-min Rain = 0
KMCS 141515Z 18011KT M06/M11 A3032 RMK A01 T10631105  RH  072%=      5-min Rain = 0
KMCS 141520Z 17012KT M06/M11 A3032 RMK A01 T10641106  RH  072%=      5-min Rain = 0
KMCS 141525Z 17013KT M06/M11 A3032 RMK A01 T10641106  RH  072%=      5-min Rain = 0
KMCS 141530Z 17012KT M06/M11 A3032 RMK A01 T10641107  RH  071%=      5-min Rain = 0
KMCS 141535Z 17012KT M06/M11 A3032 RMK A01 T10641107  RH  071%=      5-min Rain = 0
KMCS 141540Z 17011KT M06/M11 A3032 RMK A01 T10631106  RH  071%=      5-min Rain = 0
KMCS 141545Z 17011KT M06/M11 A3031 RMK A01 T10611105  RH  071%=      5-min Rain = 0
KMCS 141550Z 17011KT M06/M11 A3032 RMK A01 T10611105  RH  070%=      5-min Rain = 0
KMCS 141555Z 16010KT M06/M11 A3031 RMK A01 T10611106  RH  070%=      5-min Rain = 0
KMCS 141600Z 17011KT M06/M11 A3032 RMK A01 T10611105  RH  071%=      5-min Rain = 0
KMCS 141605Z 18012KT M06/M10 A3032 RMK A01 T10591103  RH  070%=      5-min Rain = 0
KMCS 141610Z 17012KT M06/M10 A3032 RMK A01 T10591103  RH  071%=      5-min Rain = 0
KMCS 141615Z 18011G17KT M06/M10 A3032 RMK A01 T10571101  RH  071%=      5-min Rain = 0
KMCS 141620Z 18014KT M06/M10 A3032 RMK A01 T10581102  RH  071%=      5-min Rain = 0
KMCS 141625Z 18013KT M06/M10 A3032 RMK A01 T10571100  RH  071%=      5-min Rain = 0
KMCS 141630Z 17014KT M06/M10 A3032 RMK A01 T10551099  RH  071%=      5-min Rain = 0
KMCS 141635Z 18014KT M05/M10 A3031 RMK A01 T10541097  RH  072%=      5-min Rain = 0
KMCS 141640Z 18015KT M06/M10 A3031 RMK A01 T10551096  RH  073%=      5-min Rain = 0
KMCS 141645Z 18014G19KT M05/M10 A3031 RMK A01 T10541095  RH  073%=      5-min Rain = 0
KMCS 141650Z 18014KT M05/M09 A3031 RMK A01 T10531093  RH  073%=      5-min Rain = 0
KMCS 141655Z 19015KT M05/M09 A3031 RMK A01 T10531093  RH  073%=      5-min Rain = 0
KMCS 141700Z 18014G19KT M05/M09 A3031 RMK A01 T10511091  RH  073%=      5-min Rain = 0
KMCS 141705Z 18014G20KT M05/M09 A303 RMK A01 T10491088  RH  074%=      5-min Rain = 0
KMCS 141710Z 18016KT M05/M09 A303 RMK A01 T10491087  RH  074%=      5-min Rain = 0
KMCS 141715Z 18013G18KT M05/M09 A303 RMK A01 T10471085  RH  075%=      5-min Rain = 0
KMCS 141720Z 18013KT M05/M08 A303 RMK A01 T10451084  RH  074%=      5-min Rain = 0
KMCS 141725Z 17015KT M04/M08 A3029 RMK A01 T10441082  RH  074%=      5-min Rain = 0
KMCS 141730Z 18015G20KT M04/M08 A3029 RMK A01 T10421080  RH  075%=      5-min Rain = 0
KMCS 141735Z 18013KT M04/M08 A3029 RMK A01 T10391077  RH  075%=      5-min Rain = 0
KMCS 141740Z 18015KT M04/M08 A3028 RMK A01 T10401079  RH  074%=      5-min Rain = 0
KMCS 141745Z 19015KT M04/M08 A3028 RMK A01 T10391077  RH  075%=      5-min Rain = 0
KMCS 141750Z 18014KT M04/M08 A3028 RMK A01 T10371076  RH  075%=      5-min Rain = 0
KMCS 141755Z 18015G20KT M04/M07 A3028 RMK A01 T10361074  RH  075%=      5-min Rain = 0
KMCS 141800Z 18015G21KT M04/M07 A3027 RMK A01 T10351072  RH  076%=      5-min Rain = 0
KMCS 141805Z 18014KT M03/M07 A3027 RMK A01 T10321067  RH  076%=      5-min Rain = 0
KMCS 141810Z 18014KT M03/M07 A3027 RMK A01 T10301067  RH  076%=      5-min Rain = 0
KMCS 141815Z 18014KT M03/M07 A3026 RMK A01 T10301067  RH  076%=      5-min Rain = 0
KMCS 141820Z 18014G19KT M03/M07 A3026 RMK A01 T10271065  RH  075%=      5-min Rain = 0
KMCS 141825Z 19014G19KT M03/M06 A3026 RMK A01 T10261064  RH  075%=      5-min Rain = 0
KMCS 141830Z 18015KT M02/M06 A3025 RMK A01 T10221060  RH  075%=      5-min Rain = 0
KMCS 141835Z 19014G20KT M02/M06 A3025 RMK A01 T10231061  RH  075%=      5-min Rain = 0
KMCS 141840Z 18014G19KT M02/M06 A3025 RMK A01 T10201059  RH  075%=      5-min Rain = 0
KMCS 141845Z 18016G21KT M02/M06 A3024 RMK A01 T10201060  RH  075%=      5-min Rain = 0
KMCS 141850Z 19016G21KT M02/M06 A3024 RMK A01 T10221060  RH  076%=      5-min Rain = 0
KMCS 141855Z 19016G23KT M02/M06 A3024 RMK A01 T10201058  RH  075%=      5-min Rain = 0
KMCS 141900Z 19018KT M02/M06 A3023 RMK A01 T10191058  RH  075%=      5-min Rain = 0
KMCS 141905Z 19016G21KT M02/M06 A3023 RMK A01 T10191057  RH  075%=      5-min Rain = 0
KMCS 141910Z 19017KT M02/M06 A3022 RMK A01 T10191056  RH  076%=      5-min Rain = 0
KMCS 141915Z 18017G22KT M02/M05 A3022 RMK A01 T10161054  RH  076%=      5-min Rain = 0
KMCS 141920Z 18014KT M01/M05 A3021 RMK A01 T10121051  RH  075%=      5-min Rain = 0
KMCS 141925Z 19017G22KT M01/M05 A3021 RMK A01 T10121052  RH  074%=      5-min Rain = 0
KMCS 141930Z 18014G19KT M01/M05 A3021 RMK A01 T10111051  RH  074%=      5-min Rain = 0
KMCS 141935Z 19016G21KT M01/M05 A302 RMK A01 T10111051  RH  074%=      5-min Rain = 0
KMCS 141940Z 19015KT M01/M05 A302 RMK A01 T10091049  RH  075%=      5-min Rain = 0
KMCS 141945Z 19015G20KT M01/M05 A302 RMK A01 T10081049  RH  074%=      5-min Rain = 0
KMCS 141950Z 19016KT M01/M05 A3019 RMK A01 T10081050  RH  073%=      5-min Rain = 0
KMCS 141955Z 19016KT M01/M05 A3019 RMK A01 T10071049  RH  074%=      5-min Rain = 0
KMCS 142000Z 19016G23KT M00/M05 A3019 RMK A01 T10041047  RH  073%=      5-min Rain = 0
KMCS 142005Z 19017G22KT M01/M05 A3019 RMK A01 T10061049  RH  073%=      5-min Rain = 0
KMCS 142010Z 18017G22KT M01/M05 A3018 RMK A01 T10071049  RH  073%=      5-min Rain = 0
KMCS 142015Z 19019G25KT M01/M05 A3018 RMK A01 T10071049  RH  074%=      5-min Rain = 0
KMCS 142020Z 18016G25KT M01/M05 A3018 RMK A01 T10061047  RH  074%=      5-min Rain = 0
KMCS 142025Z 19017G25KT M00/M05 A3017 RMK A01 T10041047  RH  073%=      5-min Rain = 0
KMCS 142030Z 19017G22KT M00/M04 A3017 RMK A01 T10021044  RH  073%=      5-min Rain = 0
KMCS 142035Z 19018KT M00/M05 A3017 RMK A01 T10031045  RH  074%=      5-min Rain = 0
KMCS 142040Z 19018G24KT M00/M04 A3017 RMK A01 T10031043  RH  075%=      5-min Rain = 0
KMCS 142045Z 18018G23KT M00/M04 A3017 RMK A01 T10021042  RH  075%=      5-min Rain = 0
KMCS 142050Z 19018G23KT 00/04 A3016 RMK A01 T00-00-43  RH  074%=      5-min Rain = 0
KMCS 142055Z 19017G24KT 00/M04 A3016 RMK A01 T00021041  RH  073%=      5-min Rain = 0
KMCS 142100Z 19019G26KT 00/M04 A3016 RMK A01 T00011041  RH  074%=      5-min Rain = 0
KMCS 142105Z 19019G25KT 00/M04 A3016 RMK A01 T00021040  RH  074%=      5-min Rain = 0
KMCS 142110Z 19019G25KT 00/M04 A3016 RMK A01 T00031039  RH  074%=      5-min Rain = 0
KMCS 142115Z 19020G25KT 00/M04 A3015 RMK A01 T00041039  RH  073%=      5-min Rain = 0
KMCS 142120Z 19020KT 01/M04 A3015 RMK A01 T00081036  RH  073%=      5-min Rain = 0
KMCS 142125Z 20019G24KT 01/M04 A3015 RMK A01 T00091036  RH  072%=      5-min Rain = 0
KMCS 142130Z 18018G25KT 01/M04 A3014 RMK A01 T00111035  RH  072%=      5-min Rain = 0
KMCS 142135Z 19018G25KT 01/M04 A3014 RMK A01 T00101035  RH  072%=      5-min Rain = 0
KMCS 142140Z 18017G24KT 01/M03 A3014 RMK A01 T00131032  RH  072%=      5-min Rain = 0
KMCS 142145Z 18019G24KT 01/M03 A3013 RMK A01 T00111034  RH  072%=      5-min Rain = 0
KMCS 142150Z 19018G25KT 01/M03 A3013 RMK A01 T00091034  RH  073%=      5-min Rain = 0
KMCS 142155Z 18017G24KT 01/M03 A3013 RMK A01 T00141030  RH  073%=      5-min Rain = 0
KMCS 142200Z 19018G23KT 01/M03 A3013 RMK A01 T00141030  RH  073%=      5-min Rain = 0
KMCS 142205Z 19019G26KT 02/M03 A3013 RMK A01 T00161028  RH  073%=      5-min Rain = 0
KMCS 142210Z 18017G22KT 02/M03 A3012 RMK A01 T00181027  RH  072%=      5-min Rain = 0
KMCS 142215Z 19019KT 02/M03 A3012 RMK A01 T00211027  RH  071%=      5-min Rain = 0
KMCS 142220Z 19017G23KT 02/M03 A3012 RMK A01 T00231026  RH  071%=      5-min Rain = 0
KMCS 142225Z 18017G25KT 03/M02 A3011 RMK A01 T00251023  RH  071%=      5-min Rain = 0
KMCS 142230Z 19019G25KT 03/M02 A3011 RMK A01 T00281022  RH  070%=      5-min Rain = 0
KMCS 142235Z 19018G25KT 03/M02 A3011 RMK A01 T00301021  RH  070%=      5-min Rain = 0
KMCS 142240Z 19018G24KT 03/M02 A3011 RMK A01 T00301021  RH  070%=      5-min Rain = 0
KMCS 142245Z 19018G24KT 03/M02 A301 RMK A01 T00321020  RH  069%=      5-min Rain = 0
KMCS 142250Z 18016G23KT 03/M02 A301 RMK A01 T00331019  RH  069%=      5-min Rain = 0
KMCS 142255Z 19016G23KT 04/M02 A301 RMK A01 T00361018  RH  068%=      5-min Rain = 0
KMCS 142300Z 19018G23KT 04/M02 A301 RMK A01 T00351019  RH  068%=      5-min Rain = 0
KMCS 142305Z 19016G22KT 04/M02 A301 RMK A01 T00351019  RH  068%=      5-min Rain = 0
KMCS 142310Z 18018G26KT 04/M02 A301 RMK A01 T00361019  RH  068%=      5-min Rain = 0
KMCS 142315Z 18016G22KT 04/M02 A301 RMK A01 T00361019  RH  068%=      5-min Rain = 0
KMCS 142320Z 18015G22KT 04/M02 A301 RMK A01 T00381017  RH  068%=      5-min Rain = 0
KMCS 142325Z 18016G22KT 04/M02 A3009 RMK A01 T00371017  RH  068%=      5-min Rain = 0
KMCS 142330Z 18016G22KT 04/M02 A301 RMK A01 T00371016  RH  069%=      5-min Rain = 0
KMCS 142335Z 18016G22KT 04/M02 A301 RMK A01 T00361015  RH  069%=      5-min Rain = 0
KMCS 142340Z 19017G24KT 04/M02 A3009 RMK A01 T00361015  RH  070%=      5-min Rain = 0
KMCS 142345Z 19017G22KT 03/M02 A301 RMK A01 T00341016  RH  070%=      5-min Rain = 0
KMCS 142350Z 19016G21KT 03/M02 A301 RMK A01 T00331016  RH  071%=      5-min Rain = 0
KMCS 142355Z 19016G21KT 03/M02 A301 RMK A01 T00321016  RH  071%=      5-min Rain = 0
KMCS 150000Z 19015G21KT 03/M02 A301 RMK A01 T00311017  RH  072%=      5-min Rain = 0
KMCS 150005Z 19013KT 03/M02 A3009 RMK A01 T00301017  RH  072%=      5-min Rain = 0
KMCS 150010Z 18015KT 03/M02 A3009 RMK A01 T00281017  RH  073%=      5-min Rain = 0
KMCS 150015Z 19013G18KT 03/M02 A3009 RMK A01 T00261017  RH  074%=      5-min Rain = 0
KMCS 150020Z 19013G18KT 02/M02 A3009 RMK A01 T00241018  RH  075%=      5-min Rain = 0
KMCS 150025Z 19013G18KT 02/M02 A3009 RMK A01 T00221018  RH  075%=      5-min Rain = 0
KMCS 150030Z 19012G17KT 02/M02 A3009 RMK A01 T00211018  RH  076%=      5-min Rain = 0
KMCS 150035Z 19011KT 02/M02 A3009 RMK A01 T00191018  RH  077%=      5-min Rain = 0
KMCS 150040Z 20012G17KT 02/M02 A3009 RMK A01 T00171019  RH  078%=      5-min Rain = 0
KMCS 150045Z 20013KT 02/M02 A3009 RMK A01 T00161019  RH  078%=      5-min Rain = 0
KMCS 150050Z 19013KT 01/M02 A3009 RMK A01 T00141019  RH  079%=      5-min Rain = 0
KMCS 150055Z 19014KT 01/M02 A3009 RMK A01 T00131019  RH  080%=      5-min Rain = 0
KMCS 150100Z 19015G20KT 01/M02 A3009 RMK A01 T00131019  RH  080%=      5-min Rain = 0
KMCS 150105Z 19017G22KT 01/M02 A3009 RMK A01 T00121020  RH  080%=      5-min Rain = 0
KMCS 150110Z 19017G25KT 01/M02 A3009 RMK A01 T00111020  RH  081%=      5-min Rain = 0
KMCS 150115Z 19016G21KT 01/M02 A3009 RMK A01 T00111020  RH  081%=      5-min Rain = 0
KMCS 150120Z 19014G19KT 01/M02 A3009 RMK A01 T00091020  RH  081%=      5-min Rain = 0
KMCS 150125Z 19016G22KT 01/M02 A3009 RMK A01 T00091020  RH  082%=      5-min Rain = 0
KMCS 150130Z 19016G22KT 01/M02 A3008 RMK A01 T00081020  RH  082%=      5-min Rain = 0
KMCS 150135Z 20018G25KT 01/M02 A3008 RMK A01 T00071020  RH  082%=      5-min Rain = 0
KMCS 150140Z 19018G24KT 01/M02 A3008 RMK A01 T00061021  RH  083%=      5-min Rain = 0
KMCS 150145Z 20018G24KT 01/M02 A3008 RMK A01 T00061020  RH  083%=      5-min Rain = 0
KMCS 150150Z 20019G24KT 01/M02 A3008 RMK A01 T00061020  RH  083%=      5-min Rain = 0
KMCS 150155Z 20019G25KT 01/M02 A3008 RMK A01 T00051020  RH  084%=      5-min Rain = 0
KMCS 150200Z 20021G28KT 01/M02 A3008 RMK A01 T00051020  RH  084%=      5-min Rain = 0
KMCS 150205Z 20020G25KT 00/M02 A3008 RMK A01 T00041020  RH  084%=      5-min Rain = 0
KMCS 150210Z 20021G26KT 00/M02 A3008 RMK A01 T00041020  RH  085%=      5-min Rain = 0
KMCS 150215Z 20019G26KT 00/M02 A3008 RMK A01 T00041020  RH  085%=      5-min Rain = 0
KMCS 150220Z 19018G24KT 00/M02 A3008 RMK A01 T00031020  RH  085%=      5-min Rain = 0
KMCS 150225Z 20018G24KT 00/M02 A3008 RMK A01 T00031020  RH  085%=      5-min Rain = 0
KMCS 150230Z 20018G25KT 00/M02 A3008 RMK A01 T00031020  RH  085%=      5-min Rain = 0
KMCS 150235Z 20019G24KT 00/M02 A3008 RMK A01 T00031020  RH  085%=      5-min Rain = 0
KMCS 150240Z 20020G28KT 00/M02 A3008 RMK A01 T00041019  RH  085%=      5-min Rain = 0
KMCS 150245Z 20020G28KT 00/M02 A3008 RMK A01 T00041019  RH  085%=      5-min Rain = 0
KMCS 150250Z 20021G26KT 01/M02 A3008 RMK A01 T00051018  RH  085%=      5-min Rain = 0
KMCS 150255Z 20020G26KT 01/M02 A3008 RMK A01 T00051018  RH  085%=      5-min Rain = 0
KMCS 150300Z 20020KT 01/M02 A3008 RMK A01 T00051018  RH  086%=      5-min Rain = 0
KMCS 150305Z 20018G23KT 00/M02 A3008 RMK A01 T00041017  RH  086%=      5-min Rain = 0
KMCS 150310Z 20018G24KT 00/M02 A3008 RMK A01 T00041017  RH  087%=      5-min Rain = 0
KMCS 150315Z 20018G25KT 00/M02 A3008 RMK A01 T00031017  RH  087%=      5-min Rain = 0
KMCS 150320Z 20018G23KT 00/M02 A3008 RMK A01 T00021017  RH  087%=      5-min Rain = 0
KMCS 150325Z 20018G23KT 00/M02 A3008 RMK A01 T00021017  RH  088%=      5-min Rain = 0
KMCS 150330Z 20018KT 00/M02 A3008 RMK A01 T00021017  RH  088%=      5-min Rain = 0
KMCS 150335Z 21015G20KT 00/M02 A3008 RMK A01 T00021017  RH  088%=      5-min Rain = 0
KMCS 150340Z 21017KT 00/M02 A3008 RMK A01 T00021016  RH  088%=      5-min Rain = 0
KMCS 150345Z 21016G23KT 00/M02 A3008 RMK A01 T00011017  RH  088%=      5-min Rain = 0
KMCS 150350Z 21016KT 00/M02 A3008 RMK A01 T00011017  RH  089%=      5-min Rain = 0
KMCS 150355Z 21017KT 00/02 A3008 RMK A01 T00000-17  RH  089%=      5-min Rain = 0
KMCS 150400Z 21016KT 00/02 A3008 RMK A01 T00-00-17  RH  089%=      5-min Rain = 0
KMCS 150405Z 21016KT M00/M02 A3008 RMK A01 T10011017  RH  090%=      5-min Rain = 0
KMCS 150410Z 21016KT M00/M02 A3008 RMK A01 T10021017  RH  090%=      5-min Rain = 0
KMCS 150415Z 21016KT M00/M02 A3008 RMK A01 T10021017  RH  090%=      5-min Rain = 0
KMCS 150420Z 21017G22KT M00/M02 A3008 RMK A01 T10021017  RH  091%=      5-min Rain = 0
KMCS 150425Z 21017KT M00/M02 A3008 RMK A01 T10011016  RH  091%=      5-min Rain = 0
KMCS 150430Z 21016G21KT M00/M02 A3008 RMK A01 T10011015  RH  091%=      5-min Rain = 0
KMCS 150435Z 21017G22KT M00/M02 A3008 RMK A01 T10011015  RH  091%=      5-min Rain = 0
KMCS 150440Z 21017KT 00/01 A3007 RMK A01 T00-00-14  RH  092%=      5-min Rain = 0
KMCS 150445Z 21017G23KT 00/01 A3007 RMK A01 T00-00-13  RH  092%=      5-min Rain = 0
KMCS 150450Z 21017KT 00/01 A3007 RMK A01 T00000-13  RH  092%=      5-min Rain = 0
KMCS 150455Z 21017G23KT 00/M01 A3006 RMK A01 T00011012  RH  092%=      5-min Rain = 0
KMCS 150500Z 21018G23KT 00/M01 A3006 RMK A01 T00031010  RH  092%=      5-min Rain = 0
KMCS 150505Z 21018KT 00/M01 A3006 RMK A01 T00031010  RH  092%=      5-min Rain = 0
KMCS 150510Z 21018G23KT 01/M01 A3006 RMK A01 T00051008  RH  092%=      5-min Rain = 0
KMCS 150515Z 21017G23KT 01/M01 A3006 RMK A01 T00061008  RH  092%=      5-min Rain = 0
KMCS 150520Z 21016KT 01/M01 A3006 RMK A01 T00051008  RH  092%=      5-min Rain = 0
KMCS 150525Z 21017KT 01/M01 A3006 RMK A01 T00051008  RH  092%=      5-min Rain = 0
KMCS 150530Z 21017G22KT 01/M01 A3006 RMK A01 T00051007  RH  092%=      5-min Rain = 0
KMCS 150535Z 21017KT 01/M01 A3006 RMK A01 T00051007  RH  093%=      5-min Rain = 0
KMCS 150540Z 21017G22KT 01/M01 A3005 RMK A01 T00051007  RH  093%=      5-min Rain = 0
KMCS 150545Z 21018KT 01/M01 A3005 RMK A01 T00061006  RH  093%=      5-min Rain = 0
KMCS 150550Z 21017G22KT 01/M01 A3005 RMK A01 T00061006  RH  093%=      5-min Rain = 0
KMCS 150555Z 21017G22KT 01/M01 A3005 RMK A01 T00071005  RH  093%=      5-min Rain = 0

Page generated in 0.0092 seconds.